sensor_id;sensor_type;location;lat;lon;timestamp;temperature;humidity
6841;DHT22;3458;53.678;14.080;2022-12-07T00:01:03;2.80;99.90
6841;DHT22;3458;53.678;14.080;2022-12-07T00:03:29;2.90;99.90
6841;DHT22;3458;53.678;14.080;2022-12-07T00:05:58;2.80;99.90
6841;DHT22;3458;53.678;14.080;2022-12-07T00:08:24;2.80;99.90
6841;DHT22;3458;53.678;14.080;2022-12-07T00:10:49;2.70;99.90
6841;DHT22;3458;53.678;14.080;2022-12-07T00:13:15;2.70;99.90
6841;DHT22;3458;53.678;14.080;2022-12-07T00:15:40;2.80;99.90
6841;DHT22;3458;53.678;14.080;2022-12-07T00:18:06;2.80;99.90
6841;DHT22;3458;53.678;14.080;2022-12-07T00:20:31;2.80;99.90
6841;DHT22;3458;53.678;14.080;2022-12-07T00:22:58;2.80;99.90
6841;DHT22;3458;53.678;14.080;2022-12-07T00:25:24;2.80;99.90
6841;DHT22;3458;53.678;14.080;2022-12-07T00:27:49;2.80;99.90
6841;DHT22;3458;53.678;14.080;2022-12-07T00:30:15;2.80;99.90
6841;DHT22;3458;53.678;14.080;2022-12-07T00:32:41;2.80;99.90
6841;DHT22;3458;53.678;14.080;2022-12-07T00:35:06;2.70;99.90
6841;DHT22;3458;53.678;14.080;2022-12-07T00:37:32;2.70;99.90
6841;DHT22;3458;53.678;14.080;2022-12-07T00:39:57;2.80;99.90
6841;DHT22;3458;53.678;14.080;2022-12-07T00:42:23;2.70;99.90
6841;DHT22;3458;53.678;14.080;2022-12-07T00:44:48;2.80;99.90
6841;DHT22;3458;53.678;14.080;2022-12-07T00:47:14;2.80;99.90
6841;DHT22;3458;53.678;14.080;2022-12-07T00:49:39;2.80;99.90
6841;DHT22;3458;53.678;14.080;2022-12-07T00:52:05;2.80;99.90
6841;DHT22;3458;53.678;14.080;2022-12-07T00:54:30;2.80;99.90
6841;DHT22;3458;53.678;14.080;2022-12-07T00:56:56;2.80;99.90
6841;DHT22;3458;53.678;14.080;2022-12-07T00:59:21;2.90;99.90
6841;DHT22;3458;53.678;14.080;2022-12-07T01:01:47;2.80;99.90
6841;DHT22;3458;53.678;14.080;2022-12-07T01:04:13;2.80;99.90
6841;DHT22;3458;53.678;14.080;2022-12-07T01:06:38;2.80;99.90
6841;DHT22;3458;53.678;14.080;2022-12-07T01:09:04;2.80;99.90
6841;DHT22;3458;53.678;14.080;2022-12-07T01:11:31;2.80;99.90
6841;DHT22;3458;53.678;14.080;2022-12-07T01:13:58;2.80;99.90
6841;DHT22;3458;53.678;14.080;2022-12-07T01:16:26;2.80;99.90
6841;DHT22;3458;53.678;14.080;2022-12-07T01:18:53;2.80;99.90
6841;DHT22;3458;53.678;14.080;2022-12-07T01:21:25;2.80;99.90
6841;DHT22;3458;53.678;14.080;2022-12-07T01:23:51;2.90;99.90
6841;DHT22;3458;53.678;14.080;2022-12-07T01:26:22;2.90;99.90
6841;DHT22;3458;53.678;14.080;2022-12-07T01:28:49;2.80;99.90
6841;DHT22;3458;53.678;14.080;2022-12-07T01:31:17;2.80;99.90
6841;DHT22;3458;53.678;14.080;2022-12-07T01:33:45;2.80;99.90
6841;DHT22;3458;53.678;14.080;2022-12-07T01:38:46;2.80;99.90
6841;DHT22;3458;53.678;14.080;2022-12-07T01:41:12;2.80;99.90
6841;DHT22;3458;53.678;14.080;2022-12-07T01:44:11;2.80;99.90
6841;DHT22;3458;53.678;14.080;2022-12-07T01:46:37;2.80;99.90
6841;DHT22;3458;53.678;14.080;2022-12-07T01:49:08;2.80;99.90
6841;DHT22;3458;53.678;14.080;2022-12-07T01:51:36;2.80;99.90
6841;DHT22;3458;53.678;14.080;2022-12-07T01:54:03;2.80;99.90
6841;DHT22;3458;53.678;14.080;2022-12-07T01:56:29;2.70;99.90
6841;DHT22;3458;53.678;14.080;2022-12-07T01:58:57;2.70;99.90
6841;DHT22;3458;53.678;14.080;2022-12-07T02:01:24;2.80;99.90
6841;DHT22;3458;53.678;14.080;2022-12-07T02:03:50;2.70;99.90
6841;DHT22;3458;53.678;14.080;2022-12-07T02:06:20;2.70;99.90
6841;DHT22;3458;53.678;14.080;2022-12-07T02:08:47;2.70;99.90
6841;DHT22;3458;53.678;14.080;2022-12-07T02:11:13;2.70;99.90
6841;DHT22;3458;53.678;14.080;2022-12-07T02:13:40;2.60;99.90
6841;DHT22;3458;53.678;14.080;2022-12-07T02:16:22;2.50;99.90
6841;DHT22;3458;53.678;14.080;2022-12-07T02:19:13;2.50;99.90
6841;DHT22;3458;53.678;14.080;2022-12-07T02:30:11;2.60;99.90
6841;DHT22;3458;53.678;14.080;2022-12-07T02:32:56;2.50;99.90
6841;DHT22;3458;53.678;14.080;2022-12-07T02:38:08;2.50;99.90
6841;DHT22;3458;53.678;14.080;2022-12-07T02:40:42;2.50;99.90
6841;DHT22;3458;53.678;14.080;2022-12-07T02:43:17;2.60;99.90
6841;DHT22;3458;53.678;14.080;2022-12-07T02:45:45;2.60;99.90
6841;DHT22;3458;53.678;14.080;2022-12-07T02:48:14;2.60;99.90
6841;DHT22;3458;53.678;14.080;2022-12-07T02:50:48;2.60;99.90
6841;DHT22;3458;53.678;14.080;2022-12-07T02:53:35;2.60;99.90
6841;DHT22;3458;53.678;14.080;2022-12-07T02:59:17;2.60;99.90
6841;DHT22;3458;53.678;14.080;2022-12-07T03:02:01;2.60;99.90
6841;DHT22;3458;53.678;14.080;2022-12-07T03:13:19;2.70;99.90
6841;DHT22;3458;53.678;14.080;2022-12-07T03:15:29;2.70;99.90
6841;DHT22;3458;53.678;14.080;2022-12-07T03:17:58;2.70;99.90
6841;DHT22;3458;53.678;14.080;2022-12-07T03:20:26;2.70;99.90
6841;DHT22;3458;53.678;14.080;2022-12-07T03:22:54;2.70;99.90
6841;DHT22;3458;53.678;14.080;2022-12-07T03:25:20;2.70;99.90
6841;DHT22;3458;53.678;14.080;2022-12-07T03:27:54;2.70;99.90
6841;DHT22;3458;53.678;14.080;2022-12-07T03:30:35;2.70;99.90
6841;DHT22;3458;53.678;14.080;2022-12-07T03:33:07;2.70;99.90
6841;DHT22;3458;53.678;14.080;2022-12-07T03:35:40;2.70;99.90
6841;DHT22;3458;53.678;14.080;2022-12-07T03:38:23;2.70;99.90
6841;DHT22;3458;53.678;14.080;2022-12-07T03:41:12;2.70;99.90
6841;DHT22;3458;53.678;14.080;2022-12-07T03:43:42;2.70;99.90
6841;DHT22;3458;53.678;14.080;2022-12-07T03:46:41;2.70;99.90
6841;DHT22;3458;53.678;14.080;2022-12-07T03:49:19;2.70;99.90
6841;DHT22;3458;53.678;14.080;2022-12-07T03:52:02;2.70;99.90
6841;DHT22;3458;53.678;14.080;2022-12-07T03:54:43;2.60;99.90
6841;DHT22;3458;53.678;14.080;2022-12-07T03:57:11;2.50;99.90
6841;DHT22;3458;53.678;14.080;2022-12-07T03:59:38;2.50;99.90
6841;DHT22;3458;53.678;14.080;2022-12-07T04:02:06;2.40;99.90
6841;DHT22;3458;53.678;14.080;2022-12-07T04:04:32;2.40;99.90
6841;DHT22;3458;53.678;14.080;2022-12-07T04:06:58;2.40;99.90
6841;DHT22;3458;53.678;14.080;2022-12-07T04:09:24;2.40;99.90
6841;DHT22;3458;53.678;14.080;2022-12-07T04:11:50;2.40;99.90
6841;DHT22;3458;53.678;14.080;2022-12-07T04:14:15;2.50;99.90
6841;DHT22;3458;53.678;14.080;2022-12-07T04:16:51;2.50;99.90
6841;DHT22;3458;53.678;14.080;2022-12-07T04:19:19;2.40;99.90
6841;DHT22;3458;53.678;14.080;2022-12-07T04:21:45;2.40;99.90
6841;DHT22;3458;53.678;14.080;2022-12-07T04:24:12;2.40;99.90
6841;DHT22;3458;53.678;14.080;2022-12-07T04:26:39;2.40;99.90
6841;DHT22;3458;53.678;14.080;2022-12-07T04:29:05;2.40;99.90
6841;DHT22;3458;53.678;14.080;2022-12-07T04:31:30;2.40;99.90
6841;DHT22;3458;53.678;14.080;2022-12-07T04:33:56;2.50;99.90
6841;DHT22;3458;53.678;14.080;2022-12-07T04:36:21;2.40;99.90
6841;DHT22;3458;53.678;14.080;2022-12-07T04:38:47;2.40;99.90
6841;DHT22;3458;53.678;14.080;2022-12-07T04:41:13;2.40;99.90
6841;DHT22;3458;53.678;14.080;2022-12-07T04:43:39;2.30;99.90
6841;DHT22;3458;53.678;14.080;2022-12-07T04:46:04;2.40;99.90
6841;DHT22;3458;53.678;14.080;2022-12-07T04:48:30;2.40;99.90
6841;DHT22;3458;53.678;14.080;2022-12-07T04:50:56;2.40;99.90
6841;DHT22;3458;53.678;14.080;2022-12-07T04:53:21;2.30;99.90
6841;DHT22;3458;53.678;14.080;2022-12-07T04:55:47;2.30;99.90
6841;DHT22;3458;53.678;14.080;2022-12-07T04:58:13;2.30;99.90
6841;DHT22;3458;53.678;14.080;2022-12-07T05:00:40;2.30;99.90
6841;DHT22;3458;53.678;14.080;2022-12-07T05:03:06;2.40;99.90
6841;DHT22;3458;53.678;14.080;2022-12-07T05:05:32;2.40;99.90
6841;DHT22;3458;53.678;14.080;2022-12-07T05:07:57;2.40;99.90
6841;DHT22;3458;53.678;14.080;2022-12-07T05:10:23;2.40;99.90
6841;DHT22;3458;53.678;14.080;2022-12-07T05:12:48;2.40;99.90
6841;DHT22;3458;53.678;14.080;2022-12-07T05:15:14;2.30;99.90
6841;DHT22;3458;53.678;14.080;2022-12-07T05:17:41;2.30;99.90
6841;DHT22;3458;53.678;14.080;2022-12-07T05:20:07;2.30;99.90
6841;DHT22;3458;53.678;14.080;2022-12-07T05:22:33;2.30;99.90
6841;DHT22;3458;53.678;14.080;2022-12-07T05:24:59;2.40;99.90
6841;DHT22;3458;53.678;14.080;2022-12-07T05:27:24;2.30;99.90
6841;DHT22;3458;53.678;14.080;2022-12-07T05:29:51;2.30;99.90
6841;DHT22;3458;53.678;14.080;2022-12-07T05:32:17;2.40;99.90
6841;DHT22;3458;53.678;14.080;2022-12-07T05:34:42;2.40;99.90
6841;DHT22;3458;53.678;14.080;2022-12-07T05:37:08;2.50;99.90
6841;DHT22;3458;53.678;14.080;2022-12-07T05:39:33;2.50;99.90
6841;DHT22;3458;53.678;14.080;2022-12-07T05:41:59;2.50;99.90
6841;DHT22;3458;53.678;14.080;2022-12-07T05:44:46;2.50;99.90
6841;DHT22;3458;53.678;14.080;2022-12-07T05:47:13;2.50;99.90
6841;DHT22;3458;53.678;14.080;2022-12-07T05:49:39;2.50;99.90
6841;DHT22;3458;53.678;14.080;2022-12-07T05:52:05;2.50;99.90
6841;DHT22;3458;53.678;14.080;2022-12-07T05:54:31;2.50;99.90
6841;DHT22;3458;53.678;14.080;2022-12-07T05:56:56;2.50;99.90
6841;DHT22;3458;53.678;14.080;2022-12-07T05:59:22;2.50;99.90
6841;DHT22;3458;53.678;14.080;2022-12-07T06:01:52;2.50;99.90
6841;DHT22;3458;53.678;14.080;2022-12-07T06:04:18;2.50;99.90
6841;DHT22;3458;53.678;14.080;2022-12-07T06:06:44;2.50;99.90
6841;DHT22;3458;53.678;14.080;2022-12-07T06:09:10;2.50;99.90
6841;DHT22;3458;53.678;14.080;2022-12-07T06:11:36;2.50;99.90
6841;DHT22;3458;53.678;14.080;2022-12-07T06:14:20;2.50;99.90
6841;DHT22;3458;53.678;14.080;2022-12-07T06:16:46;2.60;99.90
6841;DHT22;3458;53.678;14.080;2022-12-07T06:19:11;2.50;99.90
6841;DHT22;3458;53.678;14.080;2022-12-07T06:21:37;2.50;99.90
6841;DHT22;3458;53.678;14.080;2022-12-07T06:24:03;2.50;99.90
6841;DHT22;3458;53.678;14.080;2022-12-07T06:26:28;2.50;99.90
6841;DHT22;3458;53.678;14.080;2022-12-07T06:28:54;2.60;99.90
6841;DHT22;3458;53.678;14.080;2022-12-07T06:31:19;2.50;99.90
6841;DHT22;3458;53.678;14.080;2022-12-07T06:33:45;2.50;99.90
6841;DHT22;3458;53.678;14.080;2022-12-07T06:36:11;2.60;99.90
6841;DHT22;3458;53.678;14.080;2022-12-07T06:38:37;2.60;99.90
6841;DHT22;3458;53.678;14.080;2022-12-07T06:41:02;2.50;99.90
6841;DHT22;3458;53.678;14.080;2022-12-07T06:43:28;2.50;99.90
6841;DHT22;3458;53.678;14.080;2022-12-07T06:45:53;2.60;99.90
6841;DHT22;3458;53.678;14.080;2022-12-07T06:48:19;2.60;99.90
6841;DHT22;3458;53.678;14.080;2022-12-07T06:50:46;2.60;99.90
6841;DHT22;3458;53.678;14.080;2022-12-07T06:53:13;2.60;99.90
6841;DHT22;3458;53.678;14.080;2022-12-07T06:55:38;2.50;99.90
6841;DHT22;3458;53.678;14.080;2022-12-07T06:58:04;2.50;99.90
6841;DHT22;3458;53.678;14.080;2022-12-07T07:00:29;2.50;99.90
6841;DHT22;3458;53.678;14.080;2022-12-07T07:02:55;2.50;99.90
6841;DHT22;3458;53.678;14.080;2022-12-07T07:05:20;2.60;99.90
6841;DHT22;3458;53.678;14.080;2022-12-07T07:07:49;2.50;99.90
6841;DHT22;3458;53.678;14.080;2022-12-07T07:10:15;2.50;99.90
6841;DHT22;3458;53.678;14.080;2022-12-07T07:12:40;2.50;99.90
6841;DHT22;3458;53.678;14.080;2022-12-07T07:15:06;2.50;99.90
6841;DHT22;3458;53.678;14.080;2022-12-07T07:17:32;2.60;99.90
6841;DHT22;3458;53.678;14.080;2022-12-07T07:19:57;2.60;99.90
6841;DHT22;3458;53.678;14.080;2022-12-07T07:22:23;2.60;99.90
6841;DHT22;3458;53.678;14.080;2022-12-07T07:24:48;2.50;99.90
6841;DHT22;3458;53.678;14.080;2022-12-07T07:27:14;2.60;99.90
6841;DHT22;3458;53.678;14.080;2022-12-07T07:29:39;2.60;99.90
6841;DHT22;3458;53.678;14.080;2022-12-07T07:32:05;2.60;99.90
6841;DHT22;3458;53.678;14.080;2022-12-07T07:34:30;2.60;99.90
6841;DHT22;3458;53.678;14.080;2022-12-07T07:36:56;2.60;99.90
6841;DHT22;3458;53.678;14.080;2022-12-07T07:39:21;2.60;99.90
6841;DHT22;3458;53.678;14.080;2022-12-07T07:41:47;2.60;99.90
6841;DHT22;3458;53.678;14.080;2022-12-07T07:44:12;2.50;99.90
6841;DHT22;3458;53.678;14.080;2022-12-07T07:46:38;2.40;99.90
6841;DHT22;3458;53.678;14.080;2022-12-07T07:49:03;2.40;99.90
6841;DHT22;3458;53.678;14.080;2022-12-07T07:51:29;2.40;99.90
6841;DHT22;3458;53.678;14.080;2022-12-07T07:53:54;2.40;99.90
6841;DHT22;3458;53.678;14.080;2022-12-07T07:56:20;2.40;99.90
6841;DHT22;3458;53.678;14.080;2022-12-07T07:58:46;2.40;99.90
6841;DHT22;3458;53.678;14.080;2022-12-07T08:01:11;2.40;99.90
6841;DHT22;3458;53.678;14.080;2022-12-07T08:03:39;2.40;99.90
6841;DHT22;3458;53.678;14.080;2022-12-07T08:06:04;2.50;99.90
6841;DHT22;3458;53.678;14.080;2022-12-07T08:08:30;2.50;99.90
6841;DHT22;3458;53.678;14.080;2022-12-07T08:10:56;2.50;99.90
6841;DHT22;3458;53.678;14.080;2022-12-07T08:13:21;2.60;99.90
6841;DHT22;3458;53.678;14.080;2022-12-07T08:15:47;2.50;99.90
6841;DHT22;3458;53.678;14.080;2022-12-07T08:18:14;2.40;99.90
6841;DHT22;3458;53.678;14.080;2022-12-07T08:20:41;2.40;99.90
6841;DHT22;3458;53.678;14.080;2022-12-07T08:23:08;2.30;99.90
6841;DHT22;3458;53.678;14.080;2022-12-07T08:25:34;2.40;99.90
6841;DHT22;3458;53.678;14.080;2022-12-07T08:28:00;2.50;99.90
6841;DHT22;3458;53.678;14.080;2022-12-07T08:30:27;2.40;99.90
6841;DHT22;3458;53.678;14.080;2022-12-07T08:32:52;2.40;99.90
6841;DHT22;3458;53.678;14.080;2022-12-07T08:35:18;2.40;99.90
6841;DHT22;3458;53.678;14.080;2022-12-07T08:37:44;2.30;99.90
6841;DHT22;3458;53.678;14.080;2022-12-07T08:40:11;2.30;99.90
6841;DHT22;3458;53.678;14.080;2022-12-07T08:42:40;2.30;99.90
6841;DHT22;3458;53.678;14.080;2022-12-07T08:45:09;2.40;99.90
6841;DHT22;3458;53.678;14.080;2022-12-07T08:47:37;2.30;99.90
6841;DHT22;3458;53.678;14.080;2022-12-07T08:50:05;2.20;99.90
6841;DHT22;3458;53.678;14.080;2022-12-07T08:52:32;2.10;99.90
6841;DHT22;3458;53.678;14.080;2022-12-07T08:55:00;2.10;99.90
6841;DHT22;3458;53.678;14.080;2022-12-07T08:57:27;2.20;99.90
6841;DHT22;3458;53.678;14.080;2022-12-07T08:59:53;2.10;99.90
6841;DHT22;3458;53.678;14.080;2022-12-07T09:02:19;2.10;99.90
6841;DHT22;3458;53.678;14.080;2022-12-07T09:04:44;2.10;99.90
6841;DHT22;3458;53.678;14.080;2022-12-07T09:07:10;2.20;99.90
6841;DHT22;3458;53.678;14.080;2022-12-07T09:09:36;2.20;99.90
6841;DHT22;3458;53.678;14.080;2022-12-07T09:12:01;2.20;99.90
6841;DHT22;3458;53.678;14.080;2022-12-07T09:14:27;2.30;99.90
6841;DHT22;3458;53.678;14.080;2022-12-07T09:16:52;2.30;99.90
6841;DHT22;3458;53.678;14.080;2022-12-07T09:19:18;2.30;99.90
6841;DHT22;3458;53.678;14.080;2022-12-07T09:21:43;2.40;99.90
6841;DHT22;3458;53.678;14.080;2022-12-07T09:24:09;2.50;99.90
6841;DHT22;3458;53.678;14.080;2022-12-07T09:26:35;2.50;99.90
6841;DHT22;3458;53.678;14.080;2022-12-07T09:29:01;2.40;99.90
6841;DHT22;3458;53.678;14.080;2022-12-07T09:31:27;2.50;99.90
6841;DHT22;3458;53.678;14.080;2022-12-07T09:33:59;2.50;99.90
6841;DHT22;3458;53.678;14.080;2022-12-07T09:36:26;2.50;99.90
6841;DHT22;3458;53.678;14.080;2022-12-07T09:38:52;2.40;99.90
6841;DHT22;3458;53.678;14.080;2022-12-07T09:41:18;2.40;99.90
6841;DHT22;3458;53.678;14.080;2022-12-07T09:43:44;2.40;99.90
6841;DHT22;3458;53.678;14.080;2022-12-07T09:46:15;2.30;99.90
6841;DHT22;3458;53.678;14.080;2022-12-07T09:48:43;2.30;99.90
6841;DHT22;3458;53.678;14.080;2022-12-07T09:51:20;2.20;99.90
6841;DHT22;3458;53.678;14.080;2022-12-07T09:53:47;2.30;99.90
6841;DHT22;3458;53.678;14.080;2022-12-07T09:56:14;2.40;99.90
6841;DHT22;3458;53.678;14.080;2022-12-07T09:58:41;2.40;99.90
6841;DHT22;3458;53.678;14.080;2022-12-07T10:03:33;2.50;99.90
6841;DHT22;3458;53.678;14.080;2022-12-07T10:06:00;2.40;99.90
6841;DHT22;3458;53.678;14.080;2022-12-07T10:08:25;2.30;99.90
6841;DHT22;3458;53.678;14.080;2022-12-07T10:10:55;2.30;99.90
6841;DHT22;3458;53.678;14.080;2022-12-07T10:13:34;2.40;99.90
6841;DHT22;3458;53.678;14.080;2022-12-07T10:16:00;2.40;99.90
6841;DHT22;3458;53.678;14.080;2022-12-07T10:18:34;2.40;99.90
6841;DHT22;3458;53.678;14.080;2022-12-07T10:21:11;2.40;99.90
6841;DHT22;3458;53.678;14.080;2022-12-07T10:23:43;2.50;99.90
6841;DHT22;3458;53.678;14.080;2022-12-07T10:26:36;2.50;99.90
6841;DHT22;3458;53.678;14.080;2022-12-07T10:29:15;2.50;99.90
6841;DHT22;3458;53.678;14.080;2022-12-07T10:31:42;2.50;99.90
6841;DHT22;3458;53.678;14.080;2022-12-07T10:36:50;2.60;99.90
6841;DHT22;3458;53.678;14.080;2022-12-07T10:39:18;2.70;99.90
6841;DHT22;3458;53.678;14.080;2022-12-07T10:42:01;2.70;99.90
6841;DHT22;3458;53.678;14.080;2022-12-07T10:44:29;2.80;99.90
6841;DHT22;3458;53.678;14.080;2022-12-07T10:47:00;2.90;99.90
6841;DHT22;3458;53.678;14.080;2022-12-07T10:49:38;3.00;99.90
6841;DHT22;3458;53.678;14.080;2022-12-07T10:52:34;3.20;99.90
6841;DHT22;3458;53.678;14.080;2022-12-07T10:55:16;3.30;99.90
6841;DHT22;3458;53.678;14.080;2022-12-07T11:00:30;3.50;99.90
6841;DHT22;3458;53.678;14.080;2022-12-07T11:03:30;3.50;99.90
6841;DHT22;3458;53.678;14.080;2022-12-07T11:06:14;3.40;99.90
6841;DHT22;3458;53.678;14.080;2022-12-07T11:11:52;3.10;99.90
6841;DHT22;3458;53.678;14.080;2022-12-07T11:14:25;3.10;99.90
6841;DHT22;3458;53.678;14.080;2022-12-07T11:17:10;2.90;99.90
6841;DHT22;3458;53.678;14.080;2022-12-07T11:22:39;3.00;99.90
6841;DHT22;3458;53.678;14.080;2022-12-07T11:25:31;3.00;99.90
6841;DHT22;3458;53.678;14.080;2022-12-07T11:28:26;3.10;99.90
6841;DHT22;3458;53.678;14.080;2022-12-07T11:31:18;3.20;99.90
6841;DHT22;3458;53.678;14.080;2022-12-07T11:33:55;3.20;99.90
6841;DHT22;3458;53.678;14.080;2022-12-07T11:39:16;3.30;99.90
6841;DHT22;3458;53.678;14.080;2022-12-07T11:41:48;3.30;99.90
6841;DHT22;3458;53.678;14.080;2022-12-07T11:44:52;3.30;99.90
6841;DHT22;3458;53.678;14.080;2022-12-07T11:47:35;3.40;99.90
6841;DHT22;3458;53.678;14.080;2022-12-07T11:50:30;3.40;99.90
6841;DHT22;3458;53.678;14.080;2022-12-07T11:53:17;3.40;99.90
6841;DHT22;3458;53.678;14.080;2022-12-07T12:01:18;3.30;99.90
6841;DHT22;3458;53.678;14.080;2022-12-07T12:03:53;3.20;99.90
6841;DHT22;3458;53.678;14.080;2022-12-07T12:06:22;3.20;99.90
6841;DHT22;3458;53.678;14.080;2022-12-07T12:20:23;3.30;99.90
6841;DHT22;3458;53.678;14.080;2022-12-07T12:23:09;3.20;99.90
6841;DHT22;3458;53.678;14.080;2022-12-07T12:25:43;3.20;99.90
6841;DHT22;3458;53.678;14.080;2022-12-07T12:28:24;3.20;99.90
6841;DHT22;3458;53.678;14.080;2022-12-07T12:31:16;3.10;99.90
6841;DHT22;3458;53.678;14.080;2022-12-07T12:33:47;3.10;99.90
6841;DHT22;3458;53.678;14.080;2022-12-07T12:36:18;3.10;99.90
6841;DHT22;3458;53.678;14.080;2022-12-07T12:47:44;3.30;99.90
6841;DHT22;3458;53.678;14.080;2022-12-07T12:50:24;3.30;99.90
6841;DHT22;3458;53.678;14.080;2022-12-07T12:53:00;3.20;99.90
6841;DHT22;3458;53.678;14.080;2022-12-07T13:00:46;3.10;99.90
6841;DHT22;3458;53.678;14.080;2022-12-07T13:03:27;3.10;99.90
6841;DHT22;3458;53.678;14.080;2022-12-07T13:06:32;3.10;99.90
6841;DHT22;3458;53.678;14.080;2022-12-07T13:09:01;3.10;99.90
6841;DHT22;3458;53.678;14.080;2022-12-07T13:11:33;3.20;99.90
6841;DHT22;3458;53.678;14.080;2022-12-07T13:17:07;3.30;99.90
6841;DHT22;3458;53.678;14.080;2022-12-07T13:25:33;3.10;99.90
6841;DHT22;3458;53.678;14.080;2022-12-07T13:28:10;3.00;99.90
6841;DHT22;3458;53.678;14.080;2022-12-07T13:31:03;2.90;99.90
6841;DHT22;3458;53.678;14.080;2022-12-07T13:33:30;2.90;99.90
6841;DHT22;3458;53.678;14.080;2022-12-07T13:35:56;2.90;99.90
6841;DHT22;3458;53.678;14.080;2022-12-07T13:38:31;2.90;99.90
6841;DHT22;3458;53.678;14.080;2022-12-07T13:46:11;2.80;99.90
6841;DHT22;3458;53.678;14.080;2022-12-07T13:48:47;2.80;99.90
6841;DHT22;3458;53.678;14.080;2022-12-07T13:51:22;2.70;99.90
6841;DHT22;3458;53.678;14.080;2022-12-07T13:53:50;2.60;99.90
6841;DHT22;3458;53.678;14.080;2022-12-07T13:56:16;2.50;99.90
6841;DHT22;3458;53.678;14.080;2022-12-07T13:58:42;2.50;99.90
6841;DHT22;3458;53.678;14.080;2022-12-07T14:01:08;2.50;99.90
6841;DHT22;3458;53.678;14.080;2022-12-07T14:03:35;2.50;99.90
6841;DHT22;3458;53.678;14.080;2022-12-07T14:06:17;2.40;99.90
6841;DHT22;3458;53.678;14.080;2022-12-07T14:08:45;2.40;99.90
6841;DHT22;3458;53.678;14.080;2022-12-07T14:11:18;2.40;99.90
6841;DHT22;3458;53.678;14.080;2022-12-07T14:13:52;2.40;99.90
6841;DHT22;3458;53.678;14.080;2022-12-07T14:18:53;2.40;99.90
6841;DHT22;3458;53.678;14.080;2022-12-07T14:21:22;2.40;99.90
6841;DHT22;3458;53.678;14.080;2022-12-07T14:26:36;2.40;99.90
6841;DHT22;3458;53.678;14.080;2022-12-07T14:31:56;2.40;99.90
6841;DHT22;3458;53.678;14.080;2022-12-07T14:34:23;2.40;99.90
6841;DHT22;3458;53.678;14.080;2022-12-07T14:36:49;2.40;99.90
6841;DHT22;3458;53.678;14.080;2022-12-07T14:39:14;2.30;99.90
6841;DHT22;3458;53.678;14.080;2022-12-07T14:41:40;2.30;99.90
6841;DHT22;3458;53.678;14.080;2022-12-07T14:44:19;2.30;99.90
6841;DHT22;3458;53.678;14.080;2022-12-07T14:46:46;2.30;99.90
6841;DHT22;3458;53.678;14.080;2022-12-07T14:49:12;2.40;99.90
6841;DHT22;3458;53.678;14.080;2022-12-07T14:51:39;2.40;99.90
6841;DHT22;3458;53.678;14.080;2022-12-07T14:54:06;2.30;99.90
6841;DHT22;3458;53.678;14.080;2022-12-07T14:56:34;2.30;99.90
6841;DHT22;3458;53.678;14.080;2022-12-07T14:59:00;2.30;99.90
6841;DHT22;3458;53.678;14.080;2022-12-07T15:01:25;2.30;99.90
6841;DHT22;3458;53.678;14.080;2022-12-07T15:03:51;2.30;99.90
6841;DHT22;3458;53.678;14.080;2022-12-07T15:06:17;2.30;99.90
6841;DHT22;3458;53.678;14.080;2022-12-07T15:08:44;2.30;99.90
6841;DHT22;3458;53.678;14.080;2022-12-07T15:11:17;2.30;99.90
6841;DHT22;3458;53.678;14.080;2022-12-07T15:13:43;2.20;99.90
6841;DHT22;3458;53.678;14.080;2022-12-07T15:16:27;2.20;99.90
6841;DHT22;3458;53.678;14.080;2022-12-07T15:18:52;2.20;99.90
6841;DHT22;3458;53.678;14.080;2022-12-07T15:21:18;2.20;99.90
6841;DHT22;3458;53.678;14.080;2022-12-07T15:23:43;2.20;99.90
6841;DHT22;3458;53.678;14.080;2022-12-07T15:26:11;2.20;99.90
6841;DHT22;3458;53.678;14.080;2022-12-07T15:28:36;2.30;99.90
6841;DHT22;3458;53.678;14.080;2022-12-07T15:31:02;2.20;99.90
6841;DHT22;3458;53.678;14.080;2022-12-07T15:33:28;2.30;99.90
6841;DHT22;3458;53.678;14.080;2022-12-07T15:35:53;2.20;99.90
6841;DHT22;3458;53.678;14.080;2022-12-07T15:38:19;2.10;99.90
6841;DHT22;3458;53.678;14.080;2022-12-07T15:40:47;2.10;99.90
6841;DHT22;3458;53.678;14.080;2022-12-07T15:43:12;2.10;99.90
6841;DHT22;3458;53.678;14.080;2022-12-07T15:45:56;2.10;99.90
6841;DHT22;3458;53.678;14.080;2022-12-07T15:48:22;2.10;99.90
6841;DHT22;3458;53.678;14.080;2022-12-07T15:50:47;2.10;99.90
6841;DHT22;3458;53.678;14.080;2022-12-07T15:53:13;2.10;99.90
6841;DHT22;3458;53.678;14.080;2022-12-07T15:55:39;2.10;99.90
6841;DHT22;3458;53.678;14.080;2022-12-07T15:58:06;2.10;99.90
6841;DHT22;3458;53.678;14.080;2022-12-07T16:00:31;2.10;99.90
6841;DHT22;3458;53.678;14.080;2022-12-07T16:02:57;2.10;99.90
6841;DHT22;3458;53.678;14.080;2022-12-07T16:05:22;2.10;99.90
6841;DHT22;3458;53.678;14.080;2022-12-07T16:07:48;2.20;99.90
6841;DHT22;3458;53.678;14.080;2022-12-07T16:10:13;2.20;99.90
6841;DHT22;3458;53.678;14.080;2022-12-07T16:12:39;2.20;99.90
6841;DHT22;3458;53.678;14.080;2022-12-07T16:15:05;2.20;99.90
6841;DHT22;3458;53.678;14.080;2022-12-07T16:17:30;2.20;99.90
6841;DHT22;3458;53.678;14.080;2022-12-07T16:19:56;2.20;99.90
6841;DHT22;3458;53.678;14.080;2022-12-07T16:22:22;2.20;99.90
6841;DHT22;3458;53.678;14.080;2022-12-07T16:24:48;2.20;99.90
6841;DHT22;3458;53.678;14.080;2022-12-07T16:27:14;2.20;99.90
6841;DHT22;3458;53.678;14.080;2022-12-07T16:29:39;2.20;99.90
6841;DHT22;3458;53.678;14.080;2022-12-07T16:32:05;2.20;99.90
6841;DHT22;3458;53.678;14.080;2022-12-07T16:34:31;2.20;99.90
6841;DHT22;3458;53.678;14.080;2022-12-07T16:36:57;2.20;99.90
6841;DHT22;3458;53.678;14.080;2022-12-07T16:39:23;2.20;99.90
6841;DHT22;3458;53.678;14.080;2022-12-07T16:41:49;2.10;99.90
6841;DHT22;3458;53.678;14.080;2022-12-07T16:44:15;2.10;99.90
6841;DHT22;3458;53.678;14.080;2022-12-07T16:46:41;2.10;99.90
6841;DHT22;3458;53.678;14.080;2022-12-07T16:49:11;2.10;99.90
6841;DHT22;3458;53.678;14.080;2022-12-07T16:51:37;2.10;99.90
6841;DHT22;3458;53.678;14.080;2022-12-07T16:54:02;2.10;99.90
6841;DHT22;3458;53.678;14.080;2022-12-07T16:56:28;2.00;99.90
6841;DHT22;3458;53.678;14.080;2022-12-07T16:58:54;2.00;99.90
6841;DHT22;3458;53.678;14.080;2022-12-07T17:01:21;1.90;99.90
6841;DHT22;3458;53.678;14.080;2022-12-07T17:03:49;1.90;99.90
6841;DHT22;3458;53.678;14.080;2022-12-07T17:06:21;1.90;99.90
6841;DHT22;3458;53.678;14.080;2022-12-07T17:08:47;1.90;99.90
6841;DHT22;3458;53.678;14.080;2022-12-07T17:11:15;1.90;99.90
6841;DHT22;3458;53.678;14.080;2022-12-07T17:13:41;1.90;99.90
6841;DHT22;3458;53.678;14.080;2022-12-07T17:16:26;1.90;99.90
6841;DHT22;3458;53.678;14.080;2022-12-07T17:18:52;1.90;99.90
6841;DHT22;3458;53.678;14.080;2022-12-07T17:21:18;1.90;99.90
6841;DHT22;3458;53.678;14.080;2022-12-07T17:23:43;1.90;99.90
6841;DHT22;3458;53.678;14.080;2022-12-07T17:26:12;1.90;99.90
6841;DHT22;3458;53.678;14.080;2022-12-07T17:28:38;1.90;99.90
6841;DHT22;3458;53.678;14.080;2022-12-07T17:31:06;1.90;99.90
6841;DHT22;3458;53.678;14.080;2022-12-07T17:33:32;1.90;99.90
6841;DHT22;3458;53.678;14.080;2022-12-07T17:35:58;1.90;99.90
6841;DHT22;3458;53.678;14.080;2022-12-07T17:38:24;1.90;99.90
6841;DHT22;3458;53.678;14.080;2022-12-07T17:40:49;1.90;99.90
6841;DHT22;3458;53.678;14.080;2022-12-07T17:43:15;2.00;99.90
6841;DHT22;3458;53.678;14.080;2022-12-07T17:45:40;2.00;99.90
6841;DHT22;3458;53.678;14.080;2022-12-07T17:48:06;1.90;99.90
6841;DHT22;3458;53.678;14.080;2022-12-07T17:50:31;1.90;99.90